createdAt,value
2019-03-01T00:00:30.341Z,9.00
2019-03-01T00:02:59.078Z,8.63
2019-03-01T00:05:41.621Z,8.67
2019-03-01T00:08:11.881Z,9.00
2019-03-01T00:10:48.060Z,8.60
2019-03-01T00:13:34.894Z,9.10
2019-03-01T00:16:07.867Z,8.50
2019-03-01T00:18:41.198Z,8.57
2019-03-01T00:21:11.457Z,8.17
2019-03-01T00:23:44.708Z,9.90
2019-03-01T00:26:30.316Z,8.87
2019-03-01T00:29:12.730Z,8.70
2019-03-01T00:31:45.791Z,9.33
2019-03-01T00:34:16.069Z,9.63
2019-03-01T00:36:49.535Z,9.57
2019-03-01T00:39:31.777Z,9.43
2019-03-01T00:42:05.059Z,9.27
2019-03-01T00:44:38.334Z,10.10
2019-03-01T00:47:07.206Z,9.77
2019-03-01T00:49:36.199Z,9.60
2019-03-01T00:52:05.188Z,9.63
2019-03-01T00:54:34.040Z,10.10
2019-03-01T00:57:03.318Z,10.10
2019-03-01T00:59:32.211Z,10.40
2019-03-01T01:02:01.189Z,9.70
2019-03-01T01:04:30.014Z,10.13
2019-03-01T01:06:58.748Z,9.50
2019-03-01T01:09:27.511Z,10.83
2019-03-01T01:11:56.396Z,11.10
2019-03-01T01:14:25.227Z,11.67
2019-03-01T01:16:54.041Z,10.33
2019-03-01T01:19:22.875Z,11.20
2019-03-01T01:21:51.611Z,11.20
2019-03-01T01:24:20.376Z,11.23
2019-03-01T01:26:49.380Z,10.83
2019-03-01T01:29:18.222Z,11.07
2019-03-01T01:31:46.963Z,10.73
2019-03-01T01:34:15.728Z,10.47
2019-03-01T01:36:44.459Z,10.17
2019-03-01T01:39:13.310Z,10.53
2019-03-01T01:41:42.179Z,9.80
2019-03-01T01:44:10.911Z,9.90
2019-03-01T01:46:39.666Z,9.63
2019-03-01T01:49:08.777Z,10.17
2019-03-01T01:51:37.536Z,9.90
2019-03-01T01:54:06.266Z,9.80
2019-03-01T01:56:35.015Z,9.33
2019-03-01T01:59:03.817Z,8.43
2019-03-01T02:01:32.627Z,8.83
2019-03-01T02:04:01.433Z,9.13
2019-03-01T02:06:30.260Z,8.60
2019-03-01T02:08:58.992Z,8.53
2019-03-01T02:11:27.983Z,8.20
2019-03-01T02:13:56.745Z,9.07
2019-03-01T02:16:26.083Z,7.73
2019-03-01T02:18:57.797Z,8.57
2019-03-01T02:21:25.328Z,8.37
2019-03-01T02:23:54.060Z,8.37
2019-03-01T02:26:22.790Z,7.10
2019-03-01T02:28:51.545Z,8.00
2019-03-01T02:31:20.303Z,8.37
2019-03-01T02:33:49.036Z,7.50
2019-03-01T02:36:17.870Z,8.40
2019-03-01T02:38:46.616Z,7.90
2019-03-01T02:41:15.362Z,7.53
2019-03-01T02:43:44.188Z,8.00
2019-03-01T02:46:13.048Z,7.07
2019-03-01T02:48:41.877Z,7.13
2019-03-01T02:51:10.677Z,7.43
2019-03-01T02:53:39.499Z,7.27
2019-03-01T02:56:08.228Z,7.10
2019-03-01T02:58:37.036Z,5.83
2019-03-01T03:01:05.949Z,6.30
2019-03-01T03:03:34.698Z,5.60
2019-03-01T03:06:03.480Z,6.07
2019-03-01T03:08:32.387Z,5.47
2019-03-01T03:11:01.242Z,6.13
2019-03-01T03:13:30.068Z,6.03
2019-03-01T03:15:58.835Z,5.93
2019-03-01T03:18:27.659Z,5.77
2019-03-01T03:20:56.388Z,6.10
2019-03-01T03:23:25.155Z,5.63
2019-03-01T03:25:53.881Z,5.83
2019-03-01T03:28:22.717Z,5.70
2019-03-01T03:30:51.533Z,6.40
2019-03-01T03:33:20.526Z,6.27
2019-03-01T03:35:49.317Z,5.97
2019-03-01T03:38:18.100Z,6.57
2019-03-01T03:40:46.910Z,6.63
2019-03-01T03:43:15.703Z,6.60
2019-03-01T03:45:44.535Z,6.20
2019-03-01T03:48:13.330Z,7.10
2019-03-01T03:50:42.249Z,8.30
2019-03-01T03:53:10.996Z,7.93
2019-03-01T03:55:39.934Z,8.33
2019-03-01T03:58:10.196Z,8.73
2019-03-01T04:00:39.019Z,7.77
2019-03-01T04:03:07.828Z,9.27
2019-03-01T04:05:36.651Z,9.10
2019-03-01T04:08:05.445Z,9.77
2019-03-01T04:10:34.193Z,10.00
2019-03-01T04:13:03.002Z,10.13
2019-03-01T04:15:31.763Z,10.30
2019-03-01T04:18:00.631Z,10.57
2019-03-01T04:20:29.397Z,10.93
2019-03-01T04:22:58.130Z,11.10
2019-03-01T04:25:27.064Z,12.10
2019-03-01T04:27:55.857Z,11.60
2019-03-01T04:30:24.689Z,13.00
2019-03-01T04:32:53.447Z,12.23
2019-03-01T04:35:22.301Z,12.87
2019-03-01T04:37:51.040Z,13.07
2019-03-01T04:40:19.869Z,13.93
2019-03-01T04:42:49.303Z,14.00
2019-03-01T04:45:18.113Z,14.30
2019-03-01T04:47:46.878Z,14.70
2019-03-01T04:50:15.647Z,15.70
2019-03-01T04:52:44.453Z,15.20
2019-03-01T04:55:14.440Z,15.30
2019-03-01T04:57:43.341Z,17.20
2019-03-01T05:00:13.541Z,16.20
2019-03-01T05:02:42.375Z,15.87
2019-03-01T05:05:11.182Z,17.67
2019-03-01T05:07:39.943Z,17.30
2019-03-01T05:10:10.360Z,16.83
2019-03-01T05:12:39.203Z,16.87
2019-03-01T05:15:09.576Z,18.60
2019-03-01T05:17:38.342Z,16.87
2019-03-01T05:20:07.205Z,17.70
2019-03-01T05:22:35.996Z,18.23
2019-03-01T05:25:05.995Z,17.70
2019-03-01T05:27:34.731Z,19.50
2019-03-01T05:30:05.032Z,17.80
2019-03-01T05:32:33.844Z,19.00
2019-03-01T05:35:02.779Z,19.33
2019-03-01T05:37:31.588Z,19.60
2019-03-01T05:40:00.360Z,21.13
2019-03-01T05:42:29.352Z,22.27
2019-03-01T05:44:58.165Z,22.63
2019-03-01T05:47:26.920Z,22.87
2019-03-01T05:49:55.693Z,23.67
2019-03-01T05:52:24.421Z,25.30
2019-03-01T05:54:53.208Z,27.77
2019-03-01T05:57:22.011Z,30.63
2019-03-01T05:59:50.786Z,31.90
2019-03-01T06:02:37.570Z,32.87
2019-03-01T06:05:07.880Z,32.77
2019-03-01T06:07:38.155Z,37.30
2019-03-01T06:10:23.553Z,42.30
2019-03-01T06:12:56.786Z,43.13
2019-03-01T06:15:39.141Z,45.97
2019-03-01T06:18:24.841Z,49.93
2019-03-01T06:20:55.180Z,50.70
2019-03-01T06:23:25.558Z,57.67
2019-03-01T06:26:05.074Z,63.40
2019-03-01T06:28:35.361Z,65.00
2019-03-01T06:31:23.719Z,68.60
2019-03-01T06:33:56.677Z,66.97
2019-03-01T06:36:36.016Z,75.90
2019-03-01T06:39:23.010Z,79.83
2019-03-01T06:41:59.480Z,80.03
2019-03-01T06:44:38.927Z,87.47
2019-03-01T06:47:21.032Z,82.23
2019-03-01T06:49:49.784Z,83.77
2019-03-01T06:52:18.635Z,87.30
2019-03-01T06:54:47.379Z,88.27
2019-03-01T06:57:16.159Z,91.17
2019-03-01T06:59:44.943Z,90.27
2019-03-01T07:02:13.813Z,90.63
2019-03-01T07:04:42.654Z,91.97
2019-03-01T07:07:11.486Z,94.77
2019-03-01T07:09:40.321Z,94.33
2019-03-01T07:12:09.148Z,92.47
2019-03-01T07:14:38.190Z,95.83
2019-03-01T07:17:06.939Z,95.40
2019-03-01T07:19:35.748Z,89.27
2019-03-01T07:22:04.790Z,93.47
2019-03-01T07:24:33.623Z,94.27
2019-03-01T07:27:02.362Z,94.97
2019-03-01T07:29:31.140Z,94.63
2019-03-01T07:32:00.948Z,91.43
2019-03-01T07:34:29.715Z,94.63
2019-03-01T07:36:58.455Z,93.53
2019-03-01T07:39:27.227Z,94.97
2019-03-01T07:41:55.985Z,94.80
2019-03-01T07:44:24.807Z,92.80
2019-03-01T07:46:54.376Z,94.63
2019-03-01T07:49:23.296Z,95.93
2019-03-01T07:51:52.196Z,94.43
2019-03-01T07:54:22.382Z,92.63
2019-03-01T07:56:51.393Z,95.90
2019-03-01T07:59:20.196Z,94.87
2019-03-01T08:01:49.023Z,93.53
2019-03-01T08:04:17.931Z,90.50
2019-03-01T08:06:48.789Z,84.83
2019-03-01T08:09:17.135Z,82.97
2019-03-01T08:11:45.974Z,83.27
2019-03-01T08:14:15.727Z,80.47
2019-03-01T08:16:44.477Z,82.97
2019-03-01T08:19:17.028Z,76.27
2019-03-01T08:21:45.882Z,76.23
2019-03-01T08:24:14.373Z,76.23
2019-03-01T08:26:43.340Z,73.03
2019-03-01T08:29:12.072Z,69.07
2019-03-01T08:31:40.945Z,70.40
2019-03-01T08:34:09.693Z,68.47
2019-03-01T08:36:42.031Z,66.27
2019-03-01T08:39:10.187Z,68.67
2019-03-01T08:41:38.944Z,66.80
2019-03-01T08:44:07.684Z,71.10
2019-03-01T08:46:36.455Z,67.03
2019-03-01T08:49:06.704Z,72.47
2019-03-01T08:51:35.663Z,64.10
2019-03-01T08:54:04.421Z,67.83
2019-03-01T08:56:33.190Z,64.57
2019-03-01T08:59:01.923Z,65.10
2019-03-01T09:01:31.719Z,67.10
2019-03-01T09:04:02.717Z,62.70
2019-03-01T09:06:31.633Z,62.27
2019-03-01T09:09:00.793Z,61.30
2019-03-01T09:11:30.674Z,61.13
2019-03-01T09:14:00.050Z,63.70
2019-03-01T09:16:29.331Z,57.23
2019-03-01T09:19:01.249Z,56.27
2019-03-01T09:21:33.656Z,54.63
2019-03-01T09:24:03.023Z,52.67
2019-03-01T09:26:32.325Z,49.50
2019-03-01T09:29:01.615Z,51.07
2019-03-01T09:31:30.821Z,48.90
2019-03-01T09:34:02.020Z,51.70
2019-03-01T09:36:31.296Z,50.63
2019-03-01T09:39:00.595Z,50.03
2019-03-01T09:41:29.823Z,49.00
2019-03-01T09:43:59.605Z,47.07
2019-03-01T09:46:30.053Z,50.87
2019-03-01T09:48:59.297Z,49.17
2019-03-01T09:51:28.503Z,51.33
2019-03-01T09:53:57.879Z,51.20
2019-03-01T09:56:28.704Z,51.80
2019-03-01T09:58:58.071Z,53.53
2019-03-01T10:01:27.421Z,56.40
2019-03-01T10:03:56.749Z,59.37
2019-03-01T10:06:26.125Z,56.10
2019-03-01T10:08:55.591Z,57.80
2019-03-01T10:11:24.969Z,53.97
2019-03-01T10:13:54.460Z,52.63
2019-03-01T10:16:23.898Z,51.83
2019-03-01T10:18:53.204Z,50.17
2019-03-01T10:21:22.492Z,49.47
2019-03-01T10:23:51.726Z,49.70
2019-03-01T10:26:21.020Z,49.63
2019-03-01T10:28:50.230Z,50.33
2019-03-01T10:31:19.465Z,45.50
2019-03-01T10:33:48.681Z,49.57
2019-03-01T10:36:17.979Z,44.67
2019-03-01T10:38:47.275Z,45.97
2019-03-01T10:41:16.564Z,46.47
2019-03-01T10:43:45.776Z,45.03
2019-03-01T10:46:15.045Z,46.23
2019-03-01T10:48:44.325Z,44.63
2019-03-01T10:51:13.586Z,44.53
2019-03-01T10:53:42.884Z,45.17
2019-03-01T10:56:13.104Z,45.90
2019-03-01T10:58:42.563Z,47.87
2019-03-01T11:01:12.623Z,49.03
2019-03-01T11:03:41.939Z,44.90
2019-03-01T11:06:11.386Z,44.80
2019-03-01T11:08:40.653Z,46.27
2019-03-01T11:11:09.978Z,43.70
2019-03-01T11:13:39.327Z,40.23
2019-03-01T11:16:08.701Z,41.10
2019-03-01T11:18:38.074Z,40.40
2019-03-01T11:21:07.538Z,39.77
2019-03-01T11:23:36.943Z,36.20
2019-03-01T11:26:08.929Z,37.63
2019-03-01T11:28:52.520Z,38.40
2019-03-01T11:31:23.499Z,36.03
2019-03-01T11:33:52.971Z,35.80
2019-03-01T11:36:25.209Z,36.93
2019-03-01T11:38:54.529Z,36.37
2019-03-01T11:41:23.811Z,37.27
2019-03-01T11:43:53.189Z,36.97
2019-03-01T11:46:22.461Z,34.87
2019-03-01T11:48:53.568Z,36.43
2019-03-01T11:51:22.861Z,38.83
2019-03-01T11:53:52.557Z,33.03
2019-03-01T11:56:22.072Z,32.60
2019-03-01T11:58:51.313Z,31.80
2019-03-01T12:01:20.592Z,31.80
2019-03-01T12:03:49.992Z,32.77
2019-03-01T12:06:19.271Z,33.23
2019-03-01T12:08:48.591Z,35.73
2019-03-01T12:11:17.948Z,34.07
2019-03-01T12:13:47.528Z,35.87
2019-03-01T12:16:16.805Z,36.63
2019-03-01T12:18:46.032Z,33.47
2019-03-01T12:21:15.251Z,29.13
2019-03-01T12:23:44.615Z,23.13
2019-03-01T12:26:13.906Z,21.87
2019-03-01T12:28:43.055Z,18.40
2019-03-01T12:31:11.957Z,18.53
2019-03-01T12:33:40.873Z,20.33
2019-03-01T12:36:09.733Z,18.97
2019-03-01T12:38:38.651Z,18.63
2019-03-01T12:41:07.388Z,20.57
2019-03-01T12:43:36.175Z,18.47
2019-03-01T12:46:05.652Z,17.70
2019-03-01T12:48:34.480Z,20.00
2019-03-01T12:51:03.379Z,19.60
2019-03-01T12:53:33.797Z,19.40
2019-03-01T12:56:02.883Z,18.77
2019-03-01T12:58:31.760Z,18.37
2019-03-01T13:01:00.610Z,17.60
2019-03-01T13:03:30.083Z,17.50
2019-03-01T13:06:00.608Z,16.63
2019-03-01T13:08:29.465Z,14.47
2019-03-01T13:10:58.324Z,13.80
2019-03-01T13:13:27.136Z,14.23
2019-03-01T13:15:55.892Z,14.63
2019-03-01T13:18:24.878Z,12.43
2019-03-01T13:20:53.674Z,12.80
2019-03-01T13:23:22.428Z,12.47
2019-03-01T13:25:51.195Z,12.50
2019-03-01T13:28:19.972Z,12.57
2019-03-01T13:30:48.740Z,11.70
2019-03-01T13:33:17.566Z,11.77
2019-03-01T13:35:46.427Z,12.80
2019-03-01T13:38:15.284Z,12.07
2019-03-01T13:40:44.110Z,11.90
2019-03-01T13:43:12.871Z,12.20
2019-03-01T13:45:41.681Z,12.50
2019-03-01T13:48:10.540Z,12.53
2019-03-01T13:50:41.582Z,11.90
2019-03-01T13:53:10.408Z,12.93
2019-03-01T13:55:39.144Z,11.83
2019-03-01T13:58:07.934Z,12.63
2019-03-01T14:00:36.817Z,11.70
2019-03-01T14:03:05.723Z,13.40
2019-03-01T14:05:34.584Z,12.63
2019-03-01T14:08:08.942Z,12.07
2019-03-01T14:10:34.318Z,12.37
2019-03-01T14:13:03.172Z,12.00
2019-03-01T14:15:35.059Z,12.10
2019-03-01T14:18:02.984Z,13.03
2019-03-01T14:20:31.865Z,12.60
2019-03-01T14:23:00.712Z,11.50
2019-03-01T14:25:29.453Z,12.17
2019-03-01T14:27:58.364Z,12.43
2019-03-01T14:30:31.161Z,13.07
2019-03-01T14:32:58.952Z,12.70
2019-03-01T14:35:27.918Z,13.43
2019-03-01T14:37:56.690Z,13.83
2019-03-01T14:40:25.518Z,14.37
2019-03-01T14:42:54.254Z,12.90
2019-03-01T14:45:30.169Z,13.00
2019-03-01T14:47:58.940Z,13.87
2019-03-01T14:50:30.039Z,13.93
2019-03-01T14:52:59.191Z,14.00
2019-03-01T14:55:48.060Z,13.87
2019-03-01T14:58:18.953Z,13.27
2019-03-01T15:00:51.217Z,15.50
2019-03-01T15:03:33.808Z,15.37
2019-03-01T15:06:02.865Z,14.53
2019-03-01T15:08:31.671Z,16.50
2019-03-01T15:11:04.427Z,15.13
2019-03-01T15:13:34.843Z,14.97
2019-03-01T15:16:04.766Z,15.83
2019-03-01T15:18:33.646Z,13.67
2019-03-01T15:21:02.962Z,15.17
2019-03-01T15:23:31.893Z,15.23
2019-03-01T15:26:00.796Z,14.90
2019-03-01T15:28:29.547Z,16.27
2019-03-01T15:30:58.409Z,15.87
2019-03-01T15:33:27.163Z,15.60
2019-03-01T15:35:56.243Z,14.90
2019-03-01T15:38:27.549Z,14.90
2019-03-01T15:40:58.428Z,13.90
2019-03-01T15:43:30.007Z,14.20
2019-03-01T15:45:57.676Z,14.60
2019-03-01T15:48:26.483Z,14.53
2019-03-01T15:50:55.329Z,14.57
2019-03-01T15:53:25.024Z,14.43
2019-03-01T15:55:54.540Z,14.77
2019-03-01T15:58:23.384Z,14.37
2019-03-01T16:00:52.422Z,14.20
2019-03-01T16:03:21.261Z,13.13
2019-03-01T16:05:50.032Z,13.57
2019-03-01T16:08:18.925Z,12.37
2019-03-01T16:10:47.757Z,13.07
2019-03-01T16:13:16.602Z,13.47
2019-03-01T16:15:45.370Z,14.35
2019-03-01T16:18:14.273Z,14.80
2019-03-01T16:20:43.095Z,13.47
2019-03-01T16:23:11.942Z,14.70
2019-03-01T16:25:40.825Z,14.80
2019-03-01T16:28:09.689Z,12.40
2019-03-01T16:30:38.508Z,12.82
2019-03-01T16:33:07.290Z,12.00
2019-03-01T16:35:36.089Z,13.48
2019-03-01T16:38:05.035Z,13.00
2019-03-01T16:40:33.861Z,12.93
2019-03-01T16:43:02.708Z,13.15
2019-03-01T16:45:31.486Z,12.93
2019-03-01T16:48:01.014Z,11.67
2019-03-01T16:50:29.921Z,11.10
2019-03-01T16:53:04.289Z,10.93
2019-03-01T16:55:29.924Z,10.57
2019-03-01T16:58:06.753Z,10.17
2019-03-01T17:00:29.192Z,8.63
2019-03-01T17:02:59.422Z,8.87
2019-03-01T17:05:28.206Z,7.13
2019-03-01T17:07:59.684Z,6.87
2019-03-01T17:10:30.301Z,7.60
2019-03-01T17:12:57.973Z,7.00
2019-03-01T17:15:26.764Z,7.03
2019-03-01T17:17:55.575Z,7.80
2019-03-01T17:20:24.444Z,7.40
2019-03-01T17:22:53.293Z,6.80
2019-03-01T17:25:23.525Z,8.27
2019-03-01T17:27:52.496Z,7.00
2019-03-01T17:30:22.140Z,7.20
2019-03-01T17:32:50.940Z,6.83
2019-03-01T17:35:19.836Z,7.50
2019-03-01T17:37:48.647Z,7.30
2019-03-01T17:40:20.848Z,8.00
2019-03-01T17:42:49.680Z,8.37
2019-03-01T17:45:21.189Z,9.53
2019-03-01T17:47:49.696Z,7.83
2019-03-01T17:50:18.888Z,7.43
2019-03-01T17:52:47.688Z,7.27
2019-03-01T17:55:17.414Z,8.33
2019-03-01T17:57:46.323Z,7.60
2019-03-01T18:00:16.565Z,7.90
2019-03-01T18:02:45.324Z,8.23
2019-03-01T18:05:14.111Z,8.00
2019-03-01T18:07:42.843Z,6.97
2019-03-01T18:10:12.946Z,8.40
2019-03-01T18:12:41.784Z,8.00
2019-03-01T18:15:12.312Z,8.37
2019-03-01T18:17:42.075Z,8.20
2019-03-01T18:20:11.474Z,9.47
2019-03-01T18:22:40.306Z,8.87
2019-03-01T18:25:09.907Z,8.93
2019-03-01T18:27:38.736Z,8.57
2019-03-01T18:30:19.749Z,8.83
2019-03-01T18:32:48.855Z,8.40
2019-03-01T18:35:17.576Z,8.73
2019-03-01T18:37:46.342Z,8.93
2019-03-01T18:40:16.882Z,10.32
2019-03-01T18:42:45.621Z,9.75
2019-03-01T18:45:22.134Z,11.00
2019-03-01T18:47:50.960Z,9.40
2019-03-01T18:50:21.561Z,8.90
2019-03-01T18:52:53.193Z,7.83
2019-03-01T18:55:20.982Z,9.07
2019-03-01T18:57:49.821Z,9.77
2019-03-01T19:00:22.582Z,7.93
2019-03-01T19:02:51.748Z,7.73
2019-03-01T19:05:20.623Z,8.50
2019-03-01T19:07:49.378Z,8.40
2019-03-01T19:10:24.121Z,8.10
2019-03-01T19:12:52.723Z,8.93
2019-03-01T19:15:21.805Z,7.00
2019-03-01T19:17:50.772Z,7.60
2019-03-01T19:20:20.696Z,6.90
2019-03-01T19:22:49.643Z,7.22
2019-03-01T19:25:21.723Z,7.00
2019-03-01T19:27:50.755Z,6.27
2019-03-01T19:30:20.475Z,6.27
2019-03-01T19:32:49.294Z,6.30
2019-03-01T19:35:18.085Z,5.30
2019-03-01T19:37:49.752Z,6.17
2019-03-01T19:40:18.922Z,5.30
2019-03-01T19:42:47.731Z,5.10
2019-03-01T19:45:17.005Z,5.00
2019-03-01T19:47:45.807Z,5.13
2019-03-01T19:50:16.098Z,5.40
2019-03-01T19:52:47.096Z,4.70
2019-03-01T19:55:15.731Z,4.37
2019-03-01T19:57:44.539Z,4.17
2019-03-01T20:00:14.531Z,4.43
2019-03-01T20:02:43.345Z,4.17
2019-03-01T20:05:15.334Z,4.33
2019-03-01T20:07:43.710Z,4.10
2019-03-01T20:10:15.189Z,4.17
2019-03-01T20:12:44.885Z,4.20
2019-03-01T20:15:17.708Z,4.87
2019-03-01T20:17:46.665Z,4.80
2019-03-01T20:20:16.423Z,3.97
2019-03-01T20:22:45.748Z,3.73
2019-03-01T20:25:18.411Z,4.33
2019-03-01T20:27:47.301Z,3.73
2019-03-01T20:30:17.584Z,3.80
2019-03-01T20:32:47.449Z,4.53
2019-03-01T20:35:17.099Z,4.07
2019-03-01T20:37:45.976Z,4.23
2019-03-01T20:40:15.241Z,4.13
2019-03-01T20:42:44.112Z,4.27
2019-03-01T20:45:20.408Z,4.43
2019-03-01T20:47:50.530Z,4.17
2019-03-01T20:50:19.723Z,3.80
2019-03-01T20:52:48.568Z,4.47
2019-03-01T20:55:17.368Z,4.10
2019-03-01T20:57:46.188Z,4.03
2019-03-01T21:00:22.600Z,4.30
2019-03-01T21:02:52.098Z,4.20
2019-03-01T21:05:20.921Z,3.97
2019-03-01T21:07:53.871Z,4.60
2019-03-01T21:10:21.712Z,4.20
2019-03-01T21:12:50.533Z,4.13
2019-03-01T21:15:21.357Z,4.50
2019-03-01T21:17:52.884Z,4.00
2019-03-01T21:20:21.119Z,4.60
2019-03-01T21:22:49.873Z,4.87
2019-03-01T21:25:19.651Z,5.43
2019-03-01T21:27:48.572Z,5.40
2019-03-01T21:30:23.977Z,6.40
2019-03-01T21:32:52.245Z,6.20
2019-03-01T21:35:21.054Z,6.00
2019-03-01T21:37:50.308Z,6.07
2019-03-01T21:40:19.034Z,6.20
2019-03-01T21:42:47.783Z,6.20
2019-03-01T21:45:17.956Z,6.47
2019-03-01T21:47:48.080Z,6.27
2019-03-01T21:50:17.828Z,7.10
2019-03-01T21:52:46.599Z,7.10
2019-03-01T21:55:15.840Z,6.90
2019-03-01T21:57:44.599Z,6.47
2019-03-01T22:00:17.656Z,6.83
2019-03-01T22:02:48.962Z,7.17
2019-03-01T22:05:17.033Z,6.93
2019-03-01T22:07:45.903Z,8.10
2019-03-01T22:10:14.736Z,8.47
2019-03-01T22:12:43.548Z,9.33
2019-03-01T22:15:13.578Z,9.70
2019-03-01T22:17:45.427Z,10.47
2019-03-01T22:20:15.971Z,10.30
2019-03-01T22:22:44.719Z,10.83
2019-03-01T22:25:13.999Z,10.77
2019-03-01T22:27:43.043Z,11.50
2019-03-01T22:30:13.264Z,11.60
2019-03-01T22:32:42.319Z,13.23
2019-03-01T22:35:12.675Z,12.83
2019-03-01T22:37:41.414Z,13.50
2019-03-01T22:40:10.532Z,13.70
2019-03-01T22:42:39.371Z,15.40
2019-03-01T22:45:13.587Z,13.43
2019-03-01T22:47:42.808Z,14.03
2019-03-01T22:50:12.826Z,13.33
2019-03-01T22:52:41.803Z,14.53
2019-03-01T22:55:11.770Z,14.10
2019-03-01T22:57:40.667Z,13.83
2019-03-01T23:00:26.086Z,13.27
2019-03-01T23:02:54.908Z,12.83
2019-03-01T23:05:23.787Z,12.97
2019-03-01T23:07:52.561Z,11.90
2019-03-01T23:10:21.548Z,12.37
2019-03-01T23:12:51.146Z,12.50
2019-03-01T23:15:19.888Z,12.03
2019-03-01T23:17:48.740Z,11.93
2019-03-01T23:20:17.572Z,11.83
2019-03-01T23:22:46.939Z,11.43
2019-03-01T23:25:15.758Z,11.43
2019-03-01T23:27:44.806Z,11.17
2019-03-01T23:30:13.613Z,11.30
2019-03-01T23:32:42.453Z,11.13
2019-03-01T23:35:11.256Z,12.00
2019-03-01T23:37:40.023Z,11.37
2019-03-01T23:40:09.050Z,11.10
2019-03-01T23:42:37.890Z,11.47
2019-03-01T23:45:08.381Z,10.87
2019-03-01T23:47:38.374Z,10.53
2019-03-01T23:50:08.543Z,11.77
2019-03-01T23:52:37.296Z,10.70
2019-03-01T23:55:06.793Z,11.37
2019-03-01T23:57:37.992Z,12.23
